Flight Briefing for CMB864

Departure Arrival
Bahrain International Airport (OBBI)
Click to view FAA NOTAMS
Ramstein Air Force Base (ETAR)
Click to view FAA NOTAMS
Departure Time Arrival Time
N/A N/A
Aircraft Distance
B757-200SF 2423nm
Departure METAR Arrival METAR
OBBI 260030Z 07012KT 7000 NSC 22/19 Q1006 NOSIG ETAR 252356Z AUTO 00000KT 9999 BKN050 04/02 A3036 RMK AO2 RAB11E21DZB21E22 SLP291 P0000 60005 T00360015 10047 20035 52014 $
Suggested Route
RAMSI ITNAS UL602 TASMI L602 ALPET UM860 SRT G8 ULSAB UT334 INB L746 ODERO T86 MATEL WRN L744 ELRUR L602 KOMAN L852 DIRER REDBU KRH


View recent IFR Routes data
Notes
USTRANSCOM CONTRACT FLIGHT

Charts and Procedures

Charts for OBBI
No chart available
Charts for ETAR
No chart available

Windy.com Weather Map